메인 페이지
METAR-TAF:

METAR-TAF

공항 :

Phillip Goldston

벨리즈시티, 벨리즈

위도: 17-32N, 경도: 088-18W, 고도: 5m

현재 날씨관측

예보는 2 시간 49분 전, 00:00시(UTC)에 발표되었습니다.
서북서3kt
온도 24°C
습도 78%
기압 1016 hPa
시정 10km 이상
고도 4000ft 상공 구름 많음

METAR: MZBZ 130000Z 29003KT 9999 BKN040 24/20 A3002 Q1016 NOSIG

시각: 20:49 (02:49 UTC)

예보

예보는 5 시간 49분 전, 21:00시(UTC)에 발표되었습니다.
예보 대상 시간: 13일 00시부터 13일 24시까지 (UTC)
북동10kt
시정 10km 이상
고도 2200ft 상공 구름 보통
고도 4500ft 상공 구름 많음
확률 30%
13일 00시부터 13일 06시까지 (UTC)
시정: 5000m
고도 1000ft 상공 구름 보통
고도 3500ft 상공 구름 많음
전환 중
13일 12시부터 13일 14시까지 (UTC)
동남동10kt

TAF: MZBZ 122100Z 1300/1324 04010KT 9999 SCT022 BKN045 PROB30 1300/1306 5000 RA SCT010 BKN035 BECMG 1312/1314 11010KT

4,000개 이상의 공항 관측 자료 및 예보 (METAR 및 TAF 보고).

지도상에서 검색 가능한 기상관측소가 노란 점과 빨간 점으로 표시되어 있습니다.

기상관측소 명을 보려면 표시 위로 마우스를 이동하세요.

날씨 관측과 예보를 보려면 클릭하세요.

지도 변경 : 확대하려면 엑스 표시가 있는 녹색 버튼, 축소하려면 빼기 표시가 있는 녹색 버튼, 다음 페이지의 지도를 보려면 녹색 화살표를 클릭하세요.


METAR-TAF: